PWSweather.com
Personal Weather Stations
Station Observations
BLACKWELL
Blackwell, AlfretonGB DE55

BlackwellAlfretonGB DE55

Lat: 53.12076, Lon: -1.354978

Elevation: 410

Station Type: Vantage Pro

High Low Average
Temperature 48.9°F9.4°C 35.8°F2.1°C 42.6°F5.9°C
Dew Point 39.4°F4.1°C 32.2°F0.1°C 34.8°F1.6°C
Winds 3.0 mph 4.8 kmh 1.0 mph 1.6 kmh 2.0 mph SW3.2 kmh SW
Wind Gusts 10.0 mph16.1 kmh 3.0 mph4.8 kmh 7.0 mph11.3 kmh
Humidity 89% 55% 74%
Pressure 30.23 in1023.7 mb 29.89 in1012.2 mb -
Precipitation 0.05 in1.3 mm - -
Hour Temp Dew Point Humidity Winds Wind Gusts Pressure Precip Precip Rate Daily Precip Total
12:44 AM 35.8°F2.1°C 32.7°F0.4°C 89% 2.0 mph SW3.2 kmh SW 7.0 mph11.3 kmh 29.90 in1012.5 mb 0.00 in0.0 mm 0.00 in0.0 mm 0.00 in0.0 mm
01:44 AM 37.0°F2.8°C 32.5°F0.3°C 84% 2.0 mph SW3.2 kmh SW 8.0 mph12.9 kmh 29.89 in1012.2 mb 0.00 in0.0 mm 0.00 in0.0 mm 0.00 in0.0 mm
02:44 AM 37.2°F2.9°C 32.9°F0.5°C 84% 2.0 mph SW3.2 kmh SW 9.0 mph14.5 kmh 29.93 in1013.5 mb 0.00 in0.0 mm 0.00 in0.0 mm 0.00 in0.0 mm
03:44 AM 37.6°F3.1°C 33.1°F0.6°C 84% 2.0 mph SW3.2 kmh SW 7.0 mph11.3 kmh 29.96 in1014.6 mb 0.00 in0.0 mm 0.00 in0.0 mm 0.00 in0.0 mm
04:44 AM 38.1°F3.4°C 32.2°F0.1°C 79% 2.0 mph SW3.2 kmh SW 10.0 mph16.1 kmh 29.98 in1015.2 mb 0.00 in0.0 mm 0.00 in0.0 mm 0.00 in0.0 mm
05:44 AM 38.3°F3.5°C 32.4°F0.2°C 79% 2.0 mph SW3.2 kmh SW 6.0 mph9.7 kmh 30.02 in1016.6 mb 0.00 in0.0 mm 0.00 in0.0 mm 0.00 in0.0 mm
06:44 AM 37.9°F3.3°C 34.0°F1.1°C 85% 2.0 mph SW3.2 kmh SW 7.0 mph11.3 kmh 30.05 in1017.6 mb 0.01 in0.3 mm 0.00 in0.0 mm 0.01 in0.3 mm
07:44 AM 37.8°F3.2°C 34.7°F1.5°C 89% 1.0 mph SW1.6 kmh SW 9.0 mph14.5 kmh 30.09 in1019.0 mb 0.02 in0.5 mm 0.00 in0.0 mm 0.02 in0.5 mm
08:44 AM 40.3°F4.6°C 34.9°F1.6°C 81% 2.0 mph SW3.2 kmh SW 10.0 mph16.1 kmh 30.11 in1019.6 mb 0.00 in0.0 mm 0.00 in0.0 mm 0.02 in0.5 mm
09:44 AM 42.4°F5.8°C 35.4°F1.9°C 76% 1.0 mph SW1.6 kmh SW 7.0 mph11.3 kmh 30.15 in1021.0 mb 0.00 in0.0 mm 0.00 in0.0 mm 0.02 in0.5 mm
10:44 AM 44.1°F6.7°C 36.5°F2.5°C 75% 2.0 mph SW3.2 kmh SW 7.0 mph11.3 kmh 30.18 in1022.0 mb 0.00 in0.0 mm 0.00 in0.0 mm 0.02 in0.5 mm
11:44 AM 45.7°F7.6°C 35.1°F1.7°C 66% 2.0 mph SW3.2 kmh SW 9.0 mph14.5 kmh 30.21 in1023.0 mb 0.00 in0.0 mm 0.00 in0.0 mm 0.02 in0.5 mm
12:44 PM 46.9°F8.3°C 34.2°F1.2°C 61% 2.0 mph SW3.2 kmh SW 7.0 mph11.3 kmh 30.22 in1023.4 mb 0.00 in0.0 mm 0.00 in0.0 mm 0.02 in0.5 mm
01:44 PM 48.7°F9.3°C 34.2°F1.2°C 57% 1.0 mph SW1.6 kmh SW 6.0 mph9.7 kmh 30.23 in1023.7 mb 0.00 in0.0 mm 0.00 in0.0 mm 0.02 in0.5 mm
02:44 PM 48.9°F9.4°C 34.0°F1.1°C 56% 1.0 mph SW1.6 kmh SW 4.0 mph6.4 kmh 30.22 in1023.4 mb 0.00 in0.0 mm 0.00 in0.0 mm 0.02 in0.5 mm
03:44 PM 48.0°F8.9°C 32.5°F0.3°C 55% 1.0 mph SW1.6 kmh SW 4.0 mph6.4 kmh 30.20 in1022.7 mb 0.00 in0.0 mm 0.00 in0.0 mm 0.02 in0.5 mm
04:44 PM 46.8°F8.2°C 34.0°F1.1°C 61% 1.0 mph SW1.6 kmh SW 6.0 mph9.7 kmh 30.18 in1022.0 mb 0.00 in0.0 mm 0.00 in0.0 mm 0.02 in0.5 mm
05:44 PM 45.7°F7.6°C 35.1°F1.7°C 66% 1.0 mph WSW1.6 kmh WSW 6.0 mph9.7 kmh 30.17 in1021.7 mb 0.00 in0.0 mm 0.00 in0.0 mm 0.02 in0.5 mm
06:44 PM 45.1°F7.3°C 35.6°F2.0°C 69% 2.0 mph WSW3.2 kmh WSW 7.0 mph11.3 kmh 30.14 in1020.7 mb 0.00 in0.0 mm 0.00 in0.0 mm 0.02 in0.5 mm
07:44 PM 45.0°F7.2°C 35.8°F2.1°C 70% 1.0 mph S1.6 kmh S 7.0 mph11.3 kmh 30.11 in1019.6 mb 0.00 in0.0 mm 0.00 in0.0 mm 0.02 in0.5 mm
08:44 PM 45.0°F7.2°C 37.4°F3.0°C 75% 1.0 mph WSW1.6 kmh WSW 3.0 mph4.8 kmh 30.07 in1018.3 mb 0.00 in0.0 mm 0.00 in0.0 mm 0.02 in0.5 mm
09:44 PM 44.6°F7.0°C 37.8°F3.2°C 77% 3.0 mph WSW4.8 kmh WSW 9.0 mph14.5 kmh 30.04 in1017.3 mb 0.00 in0.0 mm 0.00 in0.0 mm 0.02 in0.5 mm
10:44 PM 43.7°F6.5°C 38.5°F3.6°C 82% 2.0 mph S3.2 kmh S 9.0 mph14.5 kmh 29.98 in1015.2 mb 0.01 in0.3 mm 0.00 in0.0 mm 0.03 in0.8 mm
11:44 PM 43.0°F6.1°C 39.4°F4.1°C 87% 3.0 mph S4.8 kmh S 10.0 mph16.1 kmh 29.92 in1013.2 mb 0.02 in0.5 mm 0.00 in0.0 mm 0.05 in1.3 mm